Urgench, Uzbekistan
Current Conditions -  °F | °C
As of 7:00 PM on Wednesday 22 Oct 2014 (Local Time) from UTNU Reporting Station
Clear Clear  
Wind Chill: 57°   Ceiling: Unl
Heat Index: 57°   Visibility: 5mi
Dew Point: 45°   Wind: 2mph
Humidity: 63%   Direction: 110°ESE
Pressure: 29.91"   Gusts: NA
Location:  41.55°N, 60.62°E
Report Text: UTNU 221400Z 11001MPS 8000 NSC 14/07 Q1013 R13/CLRD70 NOSIG
Loading
Personal Weather Stations






























Interactive Weather Map
Tropical Storm Tracking
New forecast layout! Learn more

10-Day Weather Forecast

Advertisements
Track Severe Weather on mobile